sensor_id;sensor_type;location;lat;lon;timestamp;pressure;altitude;pressure_sealevel;temperature;humidity
11172;BME280;5642;50.830;12.082;2023-08-30T00:00:59;98696.00;;;18.18;53.59
11172;BME280;5642;50.830;12.082;2023-08-30T00:03:25;98699.81;;;18.14;53.64
11172;BME280;5642;50.830;12.082;2023-08-30T00:05:51;98700.16;;;18.09;53.64
11172;BME280;5642;50.830;12.082;2023-08-30T00:08:17;98707.28;;;18.09;53.74
11172;BME280;5642;50.830;12.082;2023-08-30T00:10:48;98691.47;;;18.07;53.83
11172;BME280;5642;50.830;12.082;2023-08-30T00:13:15;98684.59;;;18.05;53.78
11172;BME280;5642;50.830;12.082;2023-08-30T00:15:41;98671.28;;;17.93;53.88
11172;BME280;5642;50.830;12.082;2023-08-30T00:18:07;98695.72;;;18.10;53.78
11172;BME280;5642;50.830;12.082;2023-08-30T00:20:33;98694.53;;;18.14;53.68
11172;BME280;5642;50.830;12.082;2023-08-30T00:23:00;98693.47;;;18.16;53.77
11172;BME280;5642;50.830;12.082;2023-08-30T00:25:26;98694.53;;;18.14;53.78
11172;BME280;5642;50.830;12.082;2023-08-30T00:27:52;98690.41;;;18.10;53.83
11172;BME280;5642;50.830;12.082;2023-08-30T00:30:19;98688.84;;;18.07;53.81
11172;BME280;5642;50.830;12.082;2023-08-30T00:32:46;98699.22;;;18.10;53.80
11172;BME280;5642;50.830;12.082;2023-08-30T00:35:12;98694.88;;;18.09;53.81
11172;BME280;5642;50.830;12.082;2023-08-30T00:37:38;98695.63;;;18.11;53.83
11172;BME280;5642;50.830;12.082;2023-08-30T00:40:05;98688.84;;;18.07;53.72
11172;BME280;5642;50.830;12.082;2023-08-30T00:42:32;98701.63;;;18.13;53.84
11172;BME280;5642;50.830;12.082;2023-08-30T00:44:58;98689.78;;;18.06;53.90
11172;BME280;5642;50.830;12.082;2023-08-30T00:47:25;98692.97;;;18.11;53.94
11172;BME280;5642;50.830;12.082;2023-08-30T00:49:51;98694.41;;;18.15;53.89
11172;BME280;5642;50.830;12.082;2023-08-30T00:52:17;98708.16;;;18.20;53.75
11172;BME280;5642;50.830;12.082;2023-08-30T00:54:44;98710.59;;;18.23;53.79
11172;BME280;5642;50.830;12.082;2023-08-30T00:57:10;98709.66;;;18.24;53.82
11172;BME280;5642;50.830;12.082;2023-08-30T00:59:36;98718.56;;;18.23;53.77
11172;BME280;5642;50.830;12.082;2023-08-30T01:02:05;98715.06;;;18.23;53.86
11172;BME280;5642;50.830;12.082;2023-08-30T01:04:31;98694.13;;;18.07;53.95
11172;BME280;5642;50.830;12.082;2023-08-30T01:06:58;98709.47;;;18.15;53.90
11172;BME280;5642;50.830;12.082;2023-08-30T01:09:24;98709.81;;;18.10;53.95
11172;BME280;5642;50.830;12.082;2023-08-30T01:11:57;98707.38;;;18.07;54.03
11172;BME280;5642;50.830;12.082;2023-08-30T01:14:38;98705.06;;;18.03;54.09
11172;BME280;5642;50.830;12.082;2023-08-30T01:17:07;98701.78;;;17.99;54.10
11172;BME280;5642;50.830;12.082;2023-08-30T01:22:18;98685.59;;;17.91;54.08
11172;BME280;5642;50.830;12.082;2023-08-30T01:25:05;98690.59;;;17.95;54.16
11172;BME280;5642;50.830;12.082;2023-08-30T01:27:35;98695.13;;;17.93;54.27
11172;BME280;5642;50.830;12.082;2023-08-30T01:30:05;98679.25;;;17.93;54.27
11172;BME280;5642;50.830;12.082;2023-08-30T01:32:33;98680.84;;;17.96;54.30
11172;BME280;5642;50.830;12.082;2023-08-30T01:35:02;98693.00;;;17.98;54.22
11172;BME280;5642;50.830;12.082;2023-08-30T01:37:29;98672.34;;;17.91;54.26
11172;BME280;5642;50.830;12.082;2023-08-30T01:39:57;98690.25;;;18.00;54.34
11172;BME280;5642;50.830;12.082;2023-08-30T01:42:25;98684.84;;;18.02;54.23
11172;BME280;5642;50.830;12.082;2023-08-30T01:44:54;98682.63;;;17.95;54.13
11172;BME280;5642;50.830;12.082;2023-08-30T01:47:27;98695.44;;;18.02;54.14
11172;BME280;5642;50.830;12.082;2023-08-30T01:49:54;98699.13;;;17.99;54.10
11172;BME280;5642;50.830;12.082;2023-08-30T01:52:22;98701.28;;;17.94;54.26
11172;BME280;5642;50.830;12.082;2023-08-30T01:54:51;98705.13;;;17.90;54.21
11172;BME280;5642;50.830;12.082;2023-08-30T01:57:17;98709.91;;;17.85;54.28
11172;BME280;5642;50.830;12.082;2023-08-30T01:59:43;98704.53;;;17.74;54.39
11172;BME280;5642;50.830;12.082;2023-08-30T02:02:09;98708.69;;;17.65;54.43
11172;BME280;5642;50.830;12.082;2023-08-30T02:04:35;98715.03;;;17.63;54.35
11172;BME280;5642;50.830;12.082;2023-08-30T02:07:09;98712.88;;;17.55;54.50
11172;BME280;5642;50.830;12.082;2023-08-30T02:09:50;98704.03;;;17.43;54.69
11172;BME280;5642;50.830;12.082;2023-08-30T02:12:23;98702.34;;;17.30;54.80
11172;BME280;5642;50.830;12.082;2023-08-30T02:14:54;98699.38;;;17.21;54.83
11172;BME280;5642;50.830;12.082;2023-08-30T02:17:22;98710.59;;;17.12;54.94
11172;BME280;5642;50.830;12.082;2023-08-30T02:19:48;98704.28;;;17.02;55.11
11172;BME280;5642;50.830;12.082;2023-08-30T02:22:14;98708.19;;;16.97;55.01
11172;BME280;5642;50.830;12.082;2023-08-30T02:24:40;98705.31;;;16.87;55.25
11172;BME280;5642;50.830;12.082;2023-08-30T02:27:06;98716.50;;;16.78;55.27
11172;BME280;5642;50.830;12.082;2023-08-30T02:29:32;98711.03;;;16.68;55.46
11172;BME280;5642;50.830;12.082;2023-08-30T02:31:58;98706.16;;;16.62;55.62
11172;BME280;5642;50.830;12.082;2023-08-30T02:34:24;98695.63;;;16.48;55.54
11172;BME280;5642;50.830;12.082;2023-08-30T02:36:50;98701.94;;;16.45;55.46
11172;BME280;5642;50.830;12.082;2023-08-30T02:39:16;98703.06;;;16.41;55.61
11172;BME280;5642;50.830;12.082;2023-08-30T02:41:42;98704.44;;;16.34;55.50
11172;BME280;5642;50.830;12.082;2023-08-30T02:44:11;98702.94;;;16.30;55.63
11172;BME280;5642;50.830;12.082;2023-08-30T02:46:37;98706.00;;;16.24;55.62
11172;BME280;5642;50.830;12.082;2023-08-30T02:49:07;98705.56;;;16.18;55.65
11172;BME280;5642;50.830;12.082;2023-08-30T02:51:35;98702.16;;;16.16;55.74
11172;BME280;5642;50.830;12.082;2023-08-30T02:54:01;98705.13;;;16.11;55.66
11172;BME280;5642;50.830;12.082;2023-08-30T02:56:27;98695.69;;;16.07;55.86
11172;BME280;5642;50.830;12.082;2023-08-30T02:58:53;98700.97;;;16.07;55.87
11172;BME280;5642;50.830;12.082;2023-08-30T03:01:19;98709.94;;;16.04;55.71
11172;BME280;5642;50.830;12.082;2023-08-30T03:03:45;98713.94;;;15.97;55.68
11172;BME280;5642;50.830;12.082;2023-08-30T03:06:12;98710.72;;;15.92;55.56
11172;BME280;5642;50.830;12.082;2023-08-30T03:08:40;98709.25;;;15.88;55.72
11172;BME280;5642;50.830;12.082;2023-08-30T03:11:10;98711.03;;;15.88;56.01
11172;BME280;5642;50.830;12.082;2023-08-30T03:13:37;98715.75;;;15.83;55.73
11172;BME280;5642;50.830;12.082;2023-08-30T03:16:16;98697.78;;;15.75;55.91
11172;BME280;5642;50.830;12.082;2023-08-30T03:18:43;98708.31;;;15.75;55.88
11172;BME280;5642;50.830;12.082;2023-08-30T03:21:09;98700.91;;;15.68;56.01
11172;BME280;5642;50.830;12.082;2023-08-30T03:23:36;98698.25;;;15.68;55.87
11172;BME280;5642;50.830;12.082;2023-08-30T03:26:13;98697.50;;;15.65;55.94
11172;BME280;5642;50.830;12.082;2023-08-30T03:28:41;98693.84;;;15.54;56.01
11172;BME280;5642;50.830;12.082;2023-08-30T03:31:20;98700.81;;;15.55;55.92
11172;BME280;5642;50.830;12.082;2023-08-30T03:33:49;98714.13;;;15.53;56.12
11172;BME280;5642;50.830;12.082;2023-08-30T03:36:17;98712.47;;;15.51;56.02
11172;BME280;5642;50.830;12.082;2023-08-30T03:38:44;98708.34;;;15.47;55.95
11172;BME280;5642;50.830;12.082;2023-08-30T03:41:12;98715.69;;;15.42;56.13
11172;BME280;5642;50.830;12.082;2023-08-30T03:43:38;98712.31;;;15.40;56.06
11172;BME280;5642;50.830;12.082;2023-08-30T03:46:04;98717.00;;;15.35;56.13
11172;BME280;5642;50.830;12.082;2023-08-30T03:48:31;98712.78;;;15.32;56.04
11172;BME280;5642;50.830;12.082;2023-08-30T03:50:58;98719.63;;;15.35;56.20
11172;BME280;5642;50.830;12.082;2023-08-30T03:53:24;98713.63;;;15.33;56.03
11172;BME280;5642;50.830;12.082;2023-08-30T03:55:51;98717.13;;;15.33;56.10
11172;BME280;5642;50.830;12.082;2023-08-30T03:58:20;98718.91;;;15.33;56.21
11172;BME280;5642;50.830;12.082;2023-08-30T04:01:04;98717.59;;;15.25;56.19
11172;BME280;5642;50.830;12.082;2023-08-30T04:03:32;98711.00;;;15.18;56.17
11172;BME280;5642;50.830;12.082;2023-08-30T04:05:58;98708.44;;;15.17;56.32
11172;BME280;5642;50.830;12.082;2023-08-30T04:08:24;98711.72;;;15.20;56.20
11172;BME280;5642;50.830;12.082;2023-08-30T04:10:52;98718.59;;;15.23;56.32
11172;BME280;5642;50.830;12.082;2023-08-30T04:13:18;98721.34;;;15.21;56.24
11172;BME280;5642;50.830;12.082;2023-08-30T04:15:44;98718.69;;;15.21;56.26
11172;BME280;5642;50.830;12.082;2023-08-30T04:18:10;98705.03;;;15.15;56.20
11172;BME280;5642;50.830;12.082;2023-08-30T04:20:36;98718.44;;;15.26;56.15
11172;BME280;5642;50.830;12.082;2023-08-30T04:23:03;98701.28;;;15.19;56.31
11172;BME280;5642;50.830;12.082;2023-08-30T04:25:30;98720.78;;;15.31;56.08
11172;BME280;5642;50.830;12.082;2023-08-30T04:27:57;98697.59;;;15.21;56.11
11172;BME280;5642;50.830;12.082;2023-08-30T04:30:23;98720.22;;;15.40;56.15
11172;BME280;5642;50.830;12.082;2023-08-30T04:32:49;98711.44;;;15.39;55.94
11172;BME280;5642;50.830;12.082;2023-08-30T04:35:15;98723.03;;;15.51;55.86
11172;BME280;5642;50.830;12.082;2023-08-30T04:37:41;98723.44;;;15.59;55.94
11172;BME280;5642;50.830;12.082;2023-08-30T04:40:09;98700.13;;;15.51;55.89
11172;BME280;5642;50.830;12.082;2023-08-30T04:42:35;98714.84;;;15.70;55.76
11172;BME280;5642;50.830;12.082;2023-08-30T04:45:03;98717.00;;;15.77;55.60
11172;BME280;5642;50.830;12.082;2023-08-30T04:47:38;98724.63;;;15.82;55.52
11172;BME280;5642;50.830;12.082;2023-08-30T04:50:22;98718.41;;;15.83;55.74
11172;BME280;5642;50.830;12.082;2023-08-30T04:52:49;98720.97;;;15.84;55.65
11172;BME280;5642;50.830;12.082;2023-08-30T04:55:15;98716.41;;;15.86;55.58
11172;BME280;5642;50.830;12.082;2023-08-30T04:57:41;98703.69;;;15.79;55.65
11172;BME280;5642;50.830;12.082;2023-08-30T05:00:13;98721.28;;;15.92;55.71
11172;BME280;5642;50.830;12.082;2023-08-30T05:02:40;98719.63;;;15.91;55.50
11172;BME280;5642;50.830;12.082;2023-08-30T05:05:09;98699.72;;;15.86;55.48
11172;BME280;5642;50.830;12.082;2023-08-30T05:07:38;98721.09;;;15.95;55.44
11172;BME280;5642;50.830;12.082;2023-08-30T05:10:05;98716.59;;;15.97;55.48
11172;BME280;5642;50.830;12.082;2023-08-30T05:12:34;98719.00;;;16.00;55.34
11172;BME280;5642;50.830;12.082;2023-08-30T05:15:02;98720.53;;;16.04;55.35
11172;BME280;5642;50.830;12.082;2023-08-30T05:17:30;98712.28;;;16.09;55.38
11172;BME280;5642;50.830;12.082;2023-08-30T05:19:56;98707.66;;;16.13;55.38
11172;BME280;5642;50.830;12.082;2023-08-30T05:22:23;98703.88;;;16.17;55.22
11172;BME280;5642;50.830;12.082;2023-08-30T05:24:49;98705.25;;;16.22;55.23
11172;BME280;5642;50.830;12.082;2023-08-30T05:27:16;98700.06;;;16.21;55.44
11172;BME280;5642;50.830;12.082;2023-08-30T05:29:47;98700.50;;;16.27;55.21
11172;BME280;5642;50.830;12.082;2023-08-30T05:32:13;98698.53;;;16.31;55.25
11172;BME280;5642;50.830;12.082;2023-08-30T05:34:42;98696.63;;;16.33;55.16
11172;BME280;5642;50.830;12.082;2023-08-30T05:37:09;98696.31;;;16.37;55.17
11172;BME280;5642;50.830;12.082;2023-08-30T05:39:44;98688.31;;;16.52;54.80
11172;BME280;5642;50.830;12.082;2023-08-30T05:42:11;98687.84;;;16.72;54.67
11172;BME280;5642;50.830;12.082;2023-08-30T05:44:37;98703.19;;;17.30;53.70
11172;BME280;5642;50.830;12.082;2023-08-30T05:47:04;98701.25;;;17.70;53.16
11172;BME280;5642;50.830;12.082;2023-08-30T05:49:31;98679.53;;;18.25;52.36
11172;BME280;5642;50.830;12.082;2023-08-30T05:51:57;98692.81;;;18.95;51.33
11172;BME280;5642;50.830;12.082;2023-08-30T05:54:24;98687.41;;;19.30;51.05
11172;BME280;5642;50.830;12.082;2023-08-30T05:56:56;98687.50;;;19.40;51.14
11172;BME280;5642;50.830;12.082;2023-08-30T05:59:23;98693.72;;;19.51;51.41
11172;BME280;5642;50.830;12.082;2023-08-30T06:01:50;98692.94;;;19.94;50.91
11172;BME280;5642;50.830;12.082;2023-08-30T06:04:20;98687.22;;;20.74;50.27
11172;BME280;5642;50.830;12.082;2023-08-30T06:06:46;98683.88;;;21.23;49.79
11172;BME280;5642;50.830;12.082;2023-08-30T06:09:12;98682.63;;;21.57;49.67
11172;BME280;5642;50.830;12.082;2023-08-30T06:11:39;98667.22;;;22.20;49.00
11172;BME280;5642;50.830;12.082;2023-08-30T06:14:05;98670.63;;;23.17;48.12
11172;BME280;5642;50.830;12.082;2023-08-30T06:16:32;98669.22;;;24.32;47.33
11172;BME280;5642;50.830;12.082;2023-08-30T06:18:58;98663.34;;;25.41;46.28
11172;BME280;5642;50.830;12.082;2023-08-30T06:21:25;98657.16;;;26.41;45.74
11172;BME280;5642;50.830;12.082;2023-08-30T06:23:54;98658.34;;;27.11;45.54
11172;BME280;5642;50.830;12.082;2023-08-30T06:26:20;98658.66;;;27.16;45.50
11172;BME280;5642;50.830;12.082;2023-08-30T06:28:47;98657.03;;;26.99;46.25
11172;BME280;5642;50.830;12.082;2023-08-30T06:31:15;98660.56;;;26.92;46.29
11172;BME280;5642;50.830;12.082;2023-08-30T06:33:44;98668.13;;;27.59;45.72
11172;BME280;5642;50.830;12.082;2023-08-30T06:36:10;98663.28;;;28.25;45.28
11172;BME280;5642;50.830;12.082;2023-08-30T06:38:38;98652.75;;;28.61;44.81
11172;BME280;5642;50.830;12.082;2023-08-30T06:41:05;98665.31;;;28.91;44.70
11172;BME280;5642;50.830;12.082;2023-08-30T06:43:32;98662.56;;;29.29;44.40
11172;BME280;5642;50.830;12.082;2023-08-30T06:45:59;98663.34;;;29.52;44.73
11172;BME280;5642;50.830;12.082;2023-08-30T06:48:28;98654.22;;;29.53;44.76
11172;BME280;5642;50.830;12.082;2023-08-30T06:51:02;98658.41;;;29.55;44.48
11172;BME280;5642;50.830;12.082;2023-08-30T06:53:33;98655.72;;;29.55;44.73
11172;BME280;5642;50.830;12.082;2023-08-30T06:56:00;98658.31;;;29.49;44.59
11172;BME280;5642;50.830;12.082;2023-08-30T06:58:30;98661.75;;;29.43;45.14
11172;BME280;5642;50.830;12.082;2023-08-30T07:00:57;98648.00;;;29.52;45.07
11172;BME280;5642;50.830;12.082;2023-08-30T07:03:27;98648.78;;;29.82;44.56
11172;BME280;5642;50.830;12.082;2023-08-30T07:05:55;98657.16;;;30.02;44.44
11172;BME280;5642;50.830;12.082;2023-08-30T07:08:21;98664.38;;;30.16;44.44
11172;BME280;5642;50.830;12.082;2023-08-30T07:10:48;98654.47;;;30.23;44.04
11172;BME280;5642;50.830;12.082;2023-08-30T07:13:15;98651.72;;;30.81;44.04
11172;BME280;5642;50.830;12.082;2023-08-30T07:15:41;98646.41;;;31.49;43.07
11172;BME280;5642;50.830;12.082;2023-08-30T07:18:12;98633.19;;;32.22;42.58
11172;BME280;5642;50.830;12.082;2023-08-30T07:20:39;98649.72;;;33.13;42.16
11172;BME280;5642;50.830;12.082;2023-08-30T07:23:07;98634.09;;;33.92;41.68
11172;BME280;5642;50.830;12.082;2023-08-30T07:25:40;98622.69;;;34.53;41.27
11172;BME280;5642;50.830;12.082;2023-08-30T07:28:06;98621.88;;;35.02;41.10
11172;BME280;5642;50.830;12.082;2023-08-30T07:30:35;98629.88;;;35.58;40.81
11172;BME280;5642;50.830;12.082;2023-08-30T07:33:02;98630.56;;;35.90;40.50
11172;BME280;5642;50.830;12.082;2023-08-30T07:35:33;98615.59;;;36.11;40.25
11172;BME280;5642;50.830;12.082;2023-08-30T07:38:00;98629.56;;;36.33;40.46
11172;BME280;5642;50.830;12.082;2023-08-30T07:40:27;98632.19;;;36.69;40.40
11172;BME280;5642;50.830;12.082;2023-08-30T07:42:55;98631.31;;;37.22;40.01
11172;BME280;5642;50.830;12.082;2023-08-30T07:45:22;98626.50;;;37.64;39.42
11172;BME280;5642;50.830;12.082;2023-08-30T07:47:48;98630.69;;;37.95;39.27
11172;BME280;5642;50.830;12.082;2023-08-30T07:50:28;98621.03;;;38.32;39.11
11172;BME280;5642;50.830;12.082;2023-08-30T07:52:57;98572.38;;;38.34;38.72
11172;BME280;5642;50.830;12.082;2023-08-30T07:55:24;98624.13;;;38.98;38.44
11172;BME280;5642;50.830;12.082;2023-08-30T07:57:57;98588.19;;;39.33;38.15
11172;BME280;5642;50.830;12.082;2023-08-30T08:00:23;98617.75;;;39.91;37.86
11172;BME280;5642;50.830;12.082;2023-08-30T08:02:50;98590.72;;;40.26;37.33
11172;BME280;5642;50.830;12.082;2023-08-30T08:05:17;98601.03;;;40.73;36.79
11172;BME280;5642;50.830;12.082;2023-08-30T08:07:43;98613.47;;;40.86;36.74
11172;BME280;5642;50.830;12.082;2023-08-30T08:10:13;98601.63;;;41.12;36.65
11172;BME280;5642;50.830;12.082;2023-08-30T08:12:40;98583.72;;;41.52;36.37
11172;BME280;5642;50.830;12.082;2023-08-30T08:15:09;98596.03;;;42.06;36.04
11172;BME280;5642;50.830;12.082;2023-08-30T08:17:46;98595.28;;;42.51;35.78
11172;BME280;5642;50.830;12.082;2023-08-30T08:20:12;98598.06;;;42.97;35.58
11172;BME280;5642;50.830;12.082;2023-08-30T08:22:41;98597.13;;;43.42;35.38
11172;BME280;5642;50.830;12.082;2023-08-30T08:25:19;98594.50;;;43.81;35.30
11172;BME280;5642;50.830;12.082;2023-08-30T08:28:05;98584.69;;;44.14;34.92
11172;BME280;5642;50.830;12.082;2023-08-30T08:30:37;98589.34;;;44.58;34.44
11172;BME280;5642;50.830;12.082;2023-08-30T08:33:04;98595.28;;;45.09;33.98
11172;BME280;5642;50.830;12.082;2023-08-30T08:35:31;98591.28;;;45.44;34.03
11172;BME280;5642;50.830;12.082;2023-08-30T08:38:04;98576.41;;;45.63;33.75
11172;BME280;5642;50.830;12.082;2023-08-30T08:40:30;98576.75;;;45.99;33.28
11172;BME280;5642;50.830;12.082;2023-08-30T08:42:56;98581.28;;;45.72;33.11
11172;BME280;5642;50.830;12.082;2023-08-30T08:45:23;98580.44;;;44.66;33.94
11172;BME280;5642;50.830;12.082;2023-08-30T08:47:52;98566.03;;;43.21;34.15
11172;BME280;5642;50.830;12.082;2023-08-30T08:50:20;98580.78;;;41.73;34.91
11172;BME280;5642;50.830;12.082;2023-08-30T08:52:47;98573.63;;;40.19;35.83
11172;BME280;5642;50.830;12.082;2023-08-30T08:55:14;98571.66;;;38.72;36.01
11172;BME280;5642;50.830;12.082;2023-08-30T08:57:42;98577.44;;;37.46;36.56
11172;BME280;5642;50.830;12.082;2023-08-30T09:00:09;98585.44;;;36.24;37.02
11172;BME280;5642;50.830;12.082;2023-08-30T09:02:53;98589.31;;;34.89;37.86
11172;BME280;5642;50.830;12.082;2023-08-30T09:05:21;98579.47;;;34.07;37.82
11172;BME280;5642;50.830;12.082;2023-08-30T09:07:54;98589.81;;;33.27;38.01
11172;BME280;5642;50.830;12.082;2023-08-30T09:10:23;98592.97;;;33.11;37.70
11172;BME280;5642;50.830;12.082;2023-08-30T09:12:49;98584.47;;;33.72;37.20
11172;BME280;5642;50.830;12.082;2023-08-30T09:15:19;98576.41;;;34.60;36.99
11172;BME280;5642;50.830;12.082;2023-08-30T09:17:58;98565.34;;;35.77;36.36
11172;BME280;5642;50.830;12.082;2023-08-30T09:20:30;98569.78;;;37.08;35.68
11172;BME280;5642;50.830;12.082;2023-08-30T09:22:58;98550.31;;;38.24;35.19
11172;BME280;5642;50.830;12.082;2023-08-30T09:25:27;98569.50;;;39.46;34.62
11172;BME280;5642;50.830;12.082;2023-08-30T09:27:57;98556.94;;;40.53;34.06
11172;BME280;5642;50.830;12.082;2023-08-30T09:30:30;98560.13;;;41.66;33.37
11172;BME280;5642;50.830;12.082;2023-08-30T09:33:07;98556.19;;;42.59;32.67
11172;BME280;5642;50.830;12.082;2023-08-30T09:35:45;98551.91;;;43.48;32.47
11172;BME280;5642;50.830;12.082;2023-08-30T09:38:19;98547.97;;;44.14;31.88
11172;BME280;5642;50.830;12.082;2023-08-30T09:40:45;98552.66;;;44.86;31.75
11172;BME280;5642;50.830;12.082;2023-08-30T09:43:12;98546.63;;;45.55;31.61
11172;BME280;5642;50.830;12.082;2023-08-30T09:45:39;98539.44;;;46.16;31.22
11172;BME280;5642;50.830;12.082;2023-08-30T09:48:10;98534.50;;;46.64;30.92
11172;BME280;5642;50.830;12.082;2023-08-30T09:50:42;98539.31;;;47.04;30.24
11172;BME280;5642;50.830;12.082;2023-08-30T09:53:15;98536.78;;;47.35;29.78
11172;BME280;5642;50.830;12.082;2023-08-30T09:55:42;98535.91;;;47.62;29.86
11172;BME280;5642;50.830;12.082;2023-08-30T09:58:11;98530.09;;;48.00;29.60
11172;BME280;5642;50.830;12.082;2023-08-30T10:00:50;98533.81;;;48.31;29.37
11172;BME280;5642;50.830;12.082;2023-08-30T10:03:23;98530.66;;;48.24;29.88
11172;BME280;5642;50.830;12.082;2023-08-30T10:05:53;98530.56;;;48.38;29.19
11172;BME280;5642;50.830;12.082;2023-08-30T10:08:23;98529.63;;;48.64;29.51
11172;BME280;5642;50.830;12.082;2023-08-30T10:10:59;98505.00;;;48.49;29.26
11172;BME280;5642;50.830;12.082;2023-08-30T10:13:29;98498.56;;;47.96;29.71
11172;BME280;5642;50.830;12.082;2023-08-30T10:16:00;98523.75;;;47.85;29.65
11172;BME280;5642;50.830;12.082;2023-08-30T10:18:34;98504.69;;;47.57;29.45
11172;BME280;5642;50.830;12.082;2023-08-30T10:21:07;98523.72;;;47.49;29.87
11172;BME280;5642;50.830;12.082;2023-08-30T10:23:39;98515.41;;;47.36;30.04
11172;BME280;5642;50.830;12.082;2023-08-30T10:26:12;98510.78;;;47.18;30.02
11172;BME280;5642;50.830;12.082;2023-08-30T10:28:39;98517.75;;;47.29;29.50
11172;BME280;5642;50.830;12.082;2023-08-30T10:31:09;98490.63;;;47.26;29.54
11172;BME280;5642;50.830;12.082;2023-08-30T10:33:49;98514.59;;;47.35;29.04
11172;BME280;5642;50.830;12.082;2023-08-30T10:36:23;98501.44;;;47.41;28.63
11172;BME280;5642;50.830;12.082;2023-08-30T10:38:52;98509.44;;;47.29;28.79
11172;BME280;5642;50.830;12.082;2023-08-30T10:41:31;98492.25;;;46.86;29.20
11172;BME280;5642;50.830;12.082;2023-08-30T10:44:17;98511.75;;;46.81;28.60
11172;BME280;5642;50.830;12.082;2023-08-30T10:46:54;98512.88;;;46.66;28.62
11172;BME280;5642;50.830;12.082;2023-08-30T10:49:21;98513.47;;;46.30;28.29
11172;BME280;5642;50.830;12.082;2023-08-30T10:51:59;98498.13;;;45.63;28.01
11172;BME280;5642;50.830;12.082;2023-08-30T10:54:37;98490.19;;;44.56;28.29
11172;BME280;5642;50.830;12.082;2023-08-30T10:57:18;98510.47;;;44.13;28.50
11172;BME280;5642;50.830;12.082;2023-08-30T11:02:50;98510.66;;;43.77;28.90
11172;BME280;5642;50.830;12.082;2023-08-30T11:05:21;98503.16;;;43.33;28.37
11172;BME280;5642;50.830;12.082;2023-08-30T11:07:56;98500.75;;;43.07;28.80
11172;BME280;5642;50.830;12.082;2023-08-30T11:10:31;98495.09;;;42.37;28.45
11172;BME280;5642;50.830;12.082;2023-08-30T11:13:03;98480.84;;;41.37;28.57
11172;BME280;5642;50.830;12.082;2023-08-30T11:15:31;98504.53;;;40.54;28.53
11172;BME280;5642;50.830;12.082;2023-08-30T11:18:04;98512.94;;;40.16;28.34
11172;BME280;5642;50.830;12.082;2023-08-30T11:20:32;98510.34;;;39.99;28.60
11172;BME280;5642;50.830;12.082;2023-08-30T11:23:02;98497.47;;;40.00;28.25
11172;BME280;5642;50.830;12.082;2023-08-30T11:25:29;98508.97;;;40.02;28.24
11172;BME280;5642;50.830;12.082;2023-08-30T11:28:03;98486.34;;;39.84;27.96
11172;BME280;5642;50.830;12.082;2023-08-30T11:30:33;98493.78;;;39.89;28.26
11172;BME280;5642;50.830;12.082;2023-08-30T11:33:07;98495.00;;;40.03;27.86
11172;BME280;5642;50.830;12.082;2023-08-30T11:35:41;98463.50;;;40.06;27.82
11172;BME280;5642;50.830;12.082;2023-08-30T11:38:13;98470.25;;;39.93;27.19
11172;BME280;5642;50.830;12.082;2023-08-30T11:40:40;98444.16;;;39.37;27.19
11172;BME280;5642;50.830;12.082;2023-08-30T11:43:09;98454.47;;;38.69;26.84
11172;BME280;5642;50.830;12.082;2023-08-30T11:45:42;98451.91;;;37.79;26.77
11172;BME280;5642;50.830;12.082;2023-08-30T11:48:12;98463.44;;;37.01;26.60
11172;BME280;5642;50.830;12.082;2023-08-30T11:50:40;98441.00;;;36.06;26.63
11172;BME280;5642;50.830;12.082;2023-08-30T11:53:11;98492.88;;;35.58;26.68
11172;BME280;5642;50.830;12.082;2023-08-30T11:55:39;98481.47;;;34.76;26.51
11172;BME280;5642;50.830;12.082;2023-08-30T11:58:18;98490.72;;;34.19;26.58
11172;BME280;5642;50.830;12.082;2023-08-30T12:00:52;98491.28;;;33.71;26.42
11172;BME280;5642;50.830;12.082;2023-08-30T12:03:21;98484.41;;;33.31;26.51
11172;BME280;5642;50.830;12.082;2023-08-30T12:05:50;98480.34;;;32.89;26.64
11172;BME280;5642;50.830;12.082;2023-08-30T12:08:30;98449.78;;;32.29;26.56
11172;BME280;5642;50.830;12.082;2023-08-30T12:11:01;98481.63;;;32.01;26.73
11172;BME280;5642;50.830;12.082;2023-08-30T12:13:36;98486.53;;;31.58;26.80
11172;BME280;5642;50.830;12.082;2023-08-30T12:16:08;98435.09;;;30.97;26.79
11172;BME280;5642;50.830;12.082;2023-08-30T12:18:38;98485.03;;;31.01;26.86
11172;BME280;5642;50.830;12.082;2023-08-30T12:21:07;98480.09;;;30.77;26.71
11172;BME280;5642;50.830;12.082;2023-08-30T12:23:35;98444.16;;;30.20;26.72
11172;BME280;5642;50.830;12.082;2023-08-30T12:26:10;98466.38;;;30.16;27.16
11172;BME280;5642;50.830;12.082;2023-08-30T12:28:41;98445.75;;;29.87;27.05
11172;BME280;5642;50.830;12.082;2023-08-30T12:31:10;98477.94;;;29.88;27.15
11172;BME280;5642;50.830;12.082;2023-08-30T12:33:43;98480.91;;;29.72;27.09
11172;BME280;5642;50.830;12.082;2023-08-30T12:36:10;98431.19;;;29.24;26.88
11172;BME280;5642;50.830;12.082;2023-08-30T12:38:37;98408.44;;;29.12;27.35
11172;BME280;5642;50.830;12.082;2023-08-30T12:41:04;98432.34;;;29.00;27.46
11172;BME280;5642;50.830;12.082;2023-08-30T12:43:33;98479.06;;;29.22;27.15
11172;BME280;5642;50.830;12.082;2023-08-30T12:45:59;98451.88;;;28.88;27.52
11172;BME280;5642;50.830;12.082;2023-08-30T12:48:27;98443.94;;;28.71;27.42
11172;BME280;5642;50.830;12.082;2023-08-30T12:50:54;98445.84;;;28.56;27.51
11172;BME280;5642;50.830;12.082;2023-08-30T12:53:20;98452.97;;;28.49;27.50
11172;BME280;5642;50.830;12.082;2023-08-30T12:55:50;98466.72;;;28.39;27.66
11172;BME280;5642;50.830;12.082;2023-08-30T12:58:16;98468.47;;;28.32;27.29
11172;BME280;5642;50.830;12.082;2023-08-30T13:00:43;98466.69;;;28.25;27.73
11172;BME280;5642;50.830;12.082;2023-08-30T13:03:11;98459.75;;;28.08;27.71
11172;BME280;5642;50.830;12.082;2023-08-30T13:05:38;98476.63;;;28.01;27.78
11172;BME280;5642;50.830;12.082;2023-08-30T13:08:07;98475.69;;;27.94;27.92
11172;BME280;5642;50.830;12.082;2023-08-30T13:10:34;98480.59;;;27.91;27.75
11172;BME280;5642;50.830;12.082;2023-08-30T13:13:01;98474.22;;;27.92;27.84
11172;BME280;5642;50.830;12.082;2023-08-30T13:15:32;98459.81;;;27.85;28.17